Time;durP1;ratioP1;P1;durP2;ratioP2;P2;SDS_P1;SDS_P2;PMS_P1;PMS_P2;Temp;Humidity;BMP_temperature;BMP_pressure;BME280_temperature;BME280_humidity;BME280_pressure;Samples;Min_cycle;Max_cycle;Signal;HPM_P1;HPM_P2
2022/12/10 00:01:48;;;;;;;8.50;5.30;;;18.80;57.70;;;;;;5019933;28;20461;-69
2022/12/10 00:04:17;;;;;;;5.60;4.83;;;18.80;57.60;;;;;;5019690;28;20468;-69
2022/12/10 00:06:46;;;;;;;5.53;5.00;;;18.80;57.60;;;;;;5025729;28;20481;-69
2022/12/10 00:09:17;;;;;;;5.40;4.73;;;18.80;57.60;;;;;;5021403;28;20543;-69
2022/12/10 00:11:46;;;;;;;7.23;5.80;;;18.80;57.50;;;;;;5014752;28;20924;-69
2022/12/10 00:14:16;;;;;;;5.93;5.43;;;18.80;57.50;;;;;;5017855;28;20539;-69
2022/12/10 00:16:44;;;;;;;5.87;5.27;;;18.80;57.40;;;;;;5019334;28;20509;-69
2022/12/10 00:19:12;;;;;;;6.00;5.40;;;18.80;57.40;;;;;;5021338;28;20456;-68
2022/12/10 00:21:41;;;;;;;5.73;5.23;;;18.80;57.30;;;;;;5019593;28;20539;-69
2022/12/10 00:24:10;;;;;;;5.70;5.20;;;18.80;57.20;;;;;;5027119;28;20538;-70
2022/12/10 00:26:39;;;;;;;5.20;4.70;;;18.80;57.20;;;;;;5031291;28;20856;-69
2022/12/10 00:29:11;;;;;;;6.23;5.23;;;18.80;57.20;;;;;;5028481;28;20539;-69
2022/12/10 00:31:41;;;;;;;6.10;5.50;;;18.80;57.10;;;;;;5030781;28;20448;-69
2022/12/10 00:34:11;;;;;;;4.60;4.20;;;18.80;57.00;;;;;;5031873;28;20440;-68
2022/12/10 00:36:43;;;;;;;5.80;5.30;;;18.80;57.00;;;;;;5027064;28;20568;-70
2022/12/10 00:39:12;;;;;;;5.80;5.07;;;18.80;57.00;;;;;;5042015;28;20696;-69
2022/12/10 00:41:41;;;;;;;7.83;5.50;;;18.80;56.90;;;;;;5026292;28;20577;-69
2022/12/10 00:44:09;;;;;;;5.70;5.10;;;18.80;56.80;;;;;;5026426;28;20990;-69
2022/12/10 00:46:40;;;;;;;6.57;5.43;;;18.80;56.80;;;;;;5042816;28;20546;-73
2022/12/10 00:49:09;;;;;;;5.87;5.37;;;18.80;56.80;;;;;;5011315;28;20535;-70
2022/12/10 00:51:37;;;;;;;5.13;4.73;;;18.80;56.70;;;;;;5014301;28;20800;-68
2022/12/10 00:54:05;;;;;;;5.63;5.13;;;18.80;56.70;;;;;;5012739;28;20474;-69
2022/12/10 00:56:34;;;;;;;5.03;4.63;;;18.80;56.70;;;;;;5026926;28;20580;-71
2022/12/10 00:59:03;;;;;;;5.23;4.73;;;18.80;56.60;;;;;;5015556;28;20536;-69
2022/12/10 01:01:33;;;;;;;6.13;5.50;;;18.80;56.60;;;;;;5025572;28;20463;-69
2022/12/10 01:04:06;;;;;;;6.30;5.70;;;18.80;56.60;;;;;;5016282;28;20445;-70
2022/12/10 01:06:35;;;;;;;4.83;4.30;;;18.80;56.60;;;;;;5021953;28;20488;-69
2022/12/10 01:09:06;;;;;;;6.00;5.30;;;18.80;56.60;;;;;;5029898;28;20475;-69
2022/12/10 01:11:37;;;;;;;5.50;5.00;;;18.80;56.60;;;;;;5030853;28;20444;-68
2022/12/10 01:14:06;;;;;;;5.23;4.73;;;18.80;56.50;;;;;;5023545;28;20484;-68
2022/12/10 01:16:34;;;;;;;5.43;4.93;;;18.80;56.50;;;;;;5015411;28;20502;-69
2022/12/10 01:19:05;;;;;;;5.93;5.43;;;18.80;56.50;;;;;;5014843;28;20459;-68
2022/12/10 01:21:35;;;;;;;6.00;5.40;;;18.80;56.50;;;;;;5026005;28;20476;-71
2022/12/10 01:24:04;;;;;;;4.90;4.40;;;18.80;56.50;;;;;;5010009;28;20464;-70
2022/12/10 01:26:34;;;;;;;6.43;5.80;;;18.80;56.50;;;;;;5013857;28;20491;-69
2022/12/10 01:29:05;;;;;;;5.73;5.23;;;18.80;56.50;;;;;;5015849;28;20762;-70
2022/12/10 01:31:37;;;;;;;5.13;4.67;;;18.80;56.50;;;;;;5015664;28;20490;-69
2022/12/10 01:34:11;;;;;;;4.90;4.50;;;18.80;56.50;;;;;;5020717;28;20458;-69
2022/12/10 01:36:42;;;;;;;5.43;4.90;;;18.80;56.50;;;;;;5020969;28;20478;-69
2022/12/10 01:39:13;;;;;;;5.10;4.60;;;18.80;56.50;;;;;;5015178;28;20785;-68
2022/12/10 01:41:45;;;;;;;5.23;4.80;;;18.80;56.60;;;;;;5019630;28;20524;-69
2022/12/10 01:44:50;;;;;;;4.67;4.23;;;18.80;56.70;;;;;;5014480;28;20461;-69
2022/12/10 01:47:19;;;;;;;5.90;5.30;;;18.80;56.70;;;;;;5030356;28;21008;-68
2022/12/10 01:49:48;;;;;;;5.13;4.73;;;18.80;56.60;;;;;;5021389;28;20515;-68
2022/12/10 01:52:16;;;;;;;5.70;5.30;;;18.80;56.60;;;;;;5013603;28;20544;-69
2022/12/10 01:54:47;;;;;;;4.93;4.50;;;18.80;56.50;;;;;;5021937;28;20631;-69
2022/12/10 01:57:18;;;;;;;5.20;4.80;;;18.80;56.50;;;;;;5022491;28;20573;-70
2022/12/10 01:59:50;;;;;;;5.17;4.67;;;18.80;56.60;;;;;;5018750;28;20476;-68
2022/12/10 02:02:25;;;;;;;6.07;5.00;;;18.80;56.50;;;;;;5017827;28;20898;-68
2022/12/10 02:05:15;;;;;;;5.23;4.83;;;18.80;56.50;;;;;;5018052;28;20484;-68
2022/12/10 02:07:58;;;;;;;4.83;4.43;;;18.80;56.50;;;;;;5015060;28;20542;-69
2022/12/10 02:10:42;;;;;;;5.00;4.60;;;18.80;56.50;;;;;;5025534;28;20559;-69
2022/12/10 02:13:18;;;;;;;4.33;3.93;;;18.80;56.40;;;;;;5033769;28;20464;-69
2022/12/10 02:15:51;;;;;;;4.90;4.50;;;18.80;56.40;;;;;;5021689;28;20898;-70
2022/12/10 02:18:25;;;;;;;4.40;4.10;;;18.80;56.30;;;;;;5032858;28;20471;-68
2022/12/10 02:20:58;;;;;;;4.50;4.10;;;18.80;56.40;;;;;;5031770;28;20451;-72
2022/12/10 02:23:31;;;;;;;4.40;4.10;;;18.70;56.40;;;;;;5029151;28;20997;-70
2022/12/10 02:26:04;;;;;;;5.80;5.23;;;18.80;56.30;;;;;;5017269;28;21054;-68
2022/12/10 02:28:40;;;;;;;4.60;4.20;;;18.80;56.40;;;;;;5028408;28;20452;-69
2022/12/10 02:31:15;;;;;;;5.03;4.57;;;18.80;56.30;;;;;;5021695;28;20550;-71
2022/12/10 02:33:49;;;;;;;4.73;4.33;;;18.70;56.30;;;;;;5012757;28;20453;-68
2022/12/10 02:36:19;;;;;;;4.33;4.00;;;18.70;56.20;;;;;;5027176;28;20476;-68
2022/12/10 02:38:51;;;;;;;5.17;4.77;;;18.70;56.20;;;;;;5032669;28;20456;-68
2022/12/10 02:41:26;;;;;;;4.80;4.40;;;18.80;56.20;;;;;;5016248;28;20505;-71
2022/12/10 02:43:57;;;;;;;4.97;4.60;;;18.80;56.20;;;;;;5011684;28;20500;-69
2022/12/10 02:46:29;;;;;;;4.90;4.50;;;18.70;56.20;;;;;;5013110;28;20450;-69
2022/12/10 02:49:02;;;;;;;5.00;4.60;;;18.70;56.10;;;;;;5012625;28;20481;-71
2022/12/10 02:51:30;;;;;;;4.50;4.10;;;18.70;56.20;;;;;;5012765;28;20469;-69
2022/12/10 02:54:01;;;;;;;5.33;4.60;;;18.70;56.10;;;;;;5023148;28;20497;-69
2022/12/10 02:56:36;;;;;;;5.43;4.93;;;18.70;56.20;;;;;;5016889;28;20476;-68
2022/12/10 02:59:18;;;;;;;4.47;4.07;;;18.70;56.10;;;;;;5018465;28;20472;-68
2022/12/10 03:01:58;;;;;;;4.03;3.73;;;18.70;56.10;;;;;;5029626;28;20475;-69
2022/12/10 03:04:34;;;;;;;4.77;4.40;;;18.70;56.10;;;;;;5013789;28;20510;-68
2022/12/10 03:07:07;;;;;;;4.40;4.10;;;18.70;56.20;;;;;;5014131;28;20548;-69
2022/12/10 03:09:41;;;;;;;5.70;5.20;;;18.70;56.30;;;;;;5030243;28;20532;-68
2022/12/10 03:12:16;;;;;;;4.03;3.73;;;18.70;56.30;;;;;;5029456;28;20433;-68
2022/12/10 03:14:46;;;;;;;3.83;3.63;;;18.70;56.40;;;;;;5013104;28;20433;-68
2022/12/10 03:17:16;;;;;;;4.50;4.20;;;18.70;56.40;;;;;;5013894;28;21007;-70
2022/12/10 03:19:48;;;;;;;4.20;3.90;;;18.70;56.50;;;;;;5013517;28;20525;-69
2022/12/10 03:22:20;;;;;;;4.23;3.93;;;18.70;56.50;;;;;;5015631;28;20892;-69
2022/12/10 03:24:49;;;;;;;4.60;4.20;;;18.70;56.50;;;;;;5026519;28;20453;-71
2022/12/10 03:27:20;;;;;;;4.20;3.90;;;18.70;56.50;;;;;;5013737;28;20464;-68
2022/12/10 03:29:51;;;;;;;5.23;4.83;;;18.70;56.50;;;;;;5012696;28;20776;-68
2022/12/10 03:32:23;;;;;;;4.67;4.27;;;18.70;56.50;;;;;;5020859;28;20554;-69
2022/12/10 03:34:53;;;;;;;4.17;3.77;;;18.70;56.50;;;;;;5032032;28;20506;-74
2022/12/10 03:37:23;;;;;;;4.20;3.80;;;18.70;56.40;;;;;;5029902;28;20565;-71
2022/12/10 03:39:52;;;;;;;4.10;3.80;;;18.70;56.30;;;;;;5014386;28;20489;-71
2022/12/10 03:42:20;;;;;;;4.70;4.40;;;18.70;56.20;;;;;;5033215;28;20436;-69
2022/12/10 03:44:51;;;;;;;4.83;4.43;;;18.70;56.30;;;;;;5028859;28;20550;-68
2022/12/10 03:47:21;;;;;;;4.20;3.90;;;18.70;56.20;;;;;;5033222;28;20460;-69
2022/12/10 03:49:49;;;;;;;4.77;4.37;;;18.70;56.20;;;;;;5027775;28;20453;-68
2022/12/10 03:52:17;;;;;;;4.17;3.77;;;18.70;56.20;;;;;;5025456;28;20540;-70
2022/12/10 03:54:46;;;;;;;4.40;4.10;;;18.70;56.10;;;;;;5016948;28;21191;-68
2022/12/10 03:57:14;;;;;;;5.03;4.63;;;18.70;56.10;;;;;;5021795;28;20516;-69
2022/12/10 03:59:42;;;;;;;4.33;4.03;;;18.70;56.10;;;;;;5014055;28;20469;-69
2022/12/10 04:02:11;;;;;;;5.30;4.43;;;18.70;56.10;;;;;;5030651;28;20558;-69
2022/12/10 04:04:40;;;;;;;5.33;4.83;;;18.70;56.00;;;;;;5016834;28;20982;-69
2022/12/10 04:07:08;;;;;;;3.87;3.57;;;18.70;56.00;;;;;;5032276;28;20535;-69
2022/12/10 04:09:37;;;;;;;4.03;3.73;;;18.70;56.10;;;;;;5016264;28;20476;-69
2022/12/10 04:12:05;;;;;;;4.27;3.87;;;18.70;56.00;;;;;;5012054;28;20446;-69
2022/12/10 04:17:19;;;;;;;4.57;3.93;;;18.70;56.00;;;;;;5024306;28;20494;-69
2022/12/10 04:19:49;;;;;;;4.10;3.80;;;18.70;56.00;;;;;;5032078;28;20535;-69
2022/12/10 04:27:48;;;;;;;4.60;4.20;;;18.70;56.00;;;;;;4981577;28;20488;-68
2022/12/10 04:30:16;;;;;;;4.27;3.97;;;18.70;56.00;;;;;;5021663;28;20455;-69
2022/12/10 04:32:45;;;;;;;4.30;4.00;;;18.70;56.10;;;;;;5031381;28;20460;-68
2022/12/10 04:35:14;;;;;;;4.37;3.93;;;18.70;56.00;;;;;;5032301;28;20455;-69
2022/12/10 04:37:43;;;;;;;3.93;3.63;;;18.70;56.00;;;;;;5029174;28;20486;-70
2022/12/10 04:40:12;;;;;;;3.97;3.67;;;18.70;56.10;;;;;;5032342;28;21006;-68
2022/12/10 04:42:40;;;;;;;4.30;3.93;;;18.70;56.10;;;;;;5011907;28;20518;-69
2022/12/10 04:45:09;;;;;;;5.00;4.60;;;18.70;56.20;;;;;;5012147;28;20532;-70
2022/12/10 04:47:37;;;;;;;4.40;4.00;;;18.70;56.20;;;;;;5027255;28;20488;-68
2022/12/10 04:50:06;;;;;;;4.40;4.10;;;18.70;56.20;;;;;;5032149;28;20540;-69
2022/12/10 04:52:37;;;;;;;3.70;3.40;;;18.70;56.20;;;;;;5030720;28;20459;-70
2022/12/10 04:55:06;;;;;;;4.33;3.93;;;18.70;56.30;;;;;;5012133;28;20447;-69
2022/12/10 04:57:34;;;;;;;3.97;3.67;;;18.70;56.30;;;;;;5020837;28;20464;-69
2022/12/10 05:00:03;;;;;;;4.43;4.00;;;18.70;56.30;;;;;;5017547;28;20462;-69
2022/12/10 05:02:31;;;;;;;3.93;3.63;;;18.70;56.20;;;;;;5017013;28;20492;-68
2022/12/10 05:05:00;;;;;;;4.93;4.53;;;18.70;56.20;;;;;;5012002;28;20506;-68
2022/12/10 05:07:28;;;;;;;4.37;4.07;;;18.70;56.10;;;;;;5014535;28;20777;-69
2022/12/10 05:09:57;;;;;;;4.50;4.00;;;18.70;56.00;;;;;;5015762;28;20462;-68
2022/12/10 05:12:25;;;;;;;4.53;4.23;;;18.70;56.00;;;;;;5030221;28;20554;-69
2022/12/10 05:14:54;;;;;;;4.10;3.80;;;18.70;55.90;;;;;;5034391;28;20454;-70
2022/12/10 05:17:22;;;;;;;4.00;3.70;;;18.70;55.90;;;;;;5035631;28;20622;-69
2022/12/10 05:19:50;;;;;;;4.10;3.80;;;18.70;55.90;;;;;;5034140;28;20452;-69
2022/12/10 05:25:06;;;;;;;3.80;3.53;;;18.70;55.80;;;;;;5017257;28;20435;-68
2022/12/10 05:27:34;;;;;;;4.17;3.87;;;18.70;55.80;;;;;;5034791;28;20531;-69
2022/12/10 05:30:02;;;;;;;4.13;3.73;;;18.70;55.80;;;;;;5028790;28;20528;-68
2022/12/10 05:32:30;;;;;;;5.20;4.10;;;18.70;55.80;;;;;;5021218;28;20791;-69
2022/12/10 05:34:58;;;;;;;4.00;3.80;;;18.70;55.80;;;;;;5029273;28;20444;-68
2022/12/10 05:37:27;;;;;;;4.40;4.10;;;18.70;55.70;;;;;;5016875;28;20516;-74
2022/12/10 05:39:55;;;;;;;4.70;4.30;;;18.70;55.70;;;;;;5015411;28;20524;-69
2022/12/10 05:42:25;;;;;;;4.53;4.13;;;18.70;55.80;;;;;;5025397;28;20543;-71
2022/12/10 05:44:53;;;;;;;4.47;4.17;;;18.70;55.70;;;;;;5017362;28;20444;-71
2022/12/10 05:47:21;;;;;;;4.60;4.20;;;18.70;55.80;;;;;;5024871;28;20467;-69
2022/12/10 05:49:49;;;;;;;4.10;3.80;;;18.70;55.80;;;;;;5014190;28;20467;-68
2022/12/10 05:52:19;;;;;;;4.43;4.03;;;18.70;55.80;;;;;;5013302;28;20516;-69
2022/12/10 05:54:48;;;;;;;4.30;4.03;;;18.70;55.80;;;;;;5028284;28;21042;-69
2022/12/10 05:57:16;;;;;;;4.50;4.10;;;18.70;55.80;;;;;;5015541;28;20457;-70
2022/12/10 05:59:45;;;;;;;4.00;3.80;;;18.70;55.90;;;;;;5014502;28;20806;-69
2022/12/10 06:02:13;;;;;;;4.07;3.70;;;18.70;56.00;;;;;;5014565;28;20507;-69
2022/12/10 06:04:42;;;;;;;4.27;3.93;;;18.70;56.10;;;;;;5030522;28;20481;-69
2022/12/10 06:07:11;;;;;;;4.00;3.70;;;18.70;56.10;;;;;;5020211;28;20487;-69
2022/12/10 06:09:39;;;;;;;3.50;3.20;;;18.70;56.20;;;;;;5018163;28;20475;-69
2022/12/10 06:12:07;;;;;;;3.83;3.53;;;18.70;56.10;;;;;;5013974;28;20547;-70
2022/12/10 06:14:36;;;;;;;3.80;3.60;;;18.70;56.20;;;;;;5016630;28;20551;-69
2022/12/10 06:17:05;;;;;;;4.30;4.00;;;18.70;56.20;;;;;;5015947;28;20469;-69
2022/12/10 06:19:33;;;;;;;4.20;3.90;;;18.70;56.20;;;;;;5015121;28;20499;-69
2022/12/10 06:22:02;;;;;;;4.10;3.80;;;18.70;56.20;;;;;;5026429;28;20483;-70
2022/12/10 06:24:30;;;;;;;4.63;4.30;;;18.70;56.20;;;;;;5033381;28;20828;-70
2022/12/10 06:26:58;;;;;;;4.13;3.83;;;18.70;56.10;;;;;;5034023;28;20455;-68
2022/12/10 06:29:26;;;;;;;4.43;4.03;;;18.70;56.10;;;;;;5033328;28;20878;-70
2022/12/10 06:31:54;;;;;;;4.60;4.20;;;18.70;56.10;;;;;;5034016;28;20520;-69
2022/12/10 06:34:24;;;;;;;4.70;4.30;;;18.70;56.10;;;;;;5022886;28;20449;-69
2022/12/10 06:36:54;;;;;;;4.27;3.97;;;18.70;56.10;;;;;;5018633;28;20456;-71
2022/12/10 06:39:22;;;;;;;4.70;4.30;;;18.70;56.00;;;;;;5018452;28;20567;-69
2022/12/10 06:41:50;;;;;;;3.80;3.60;;;18.70;56.00;;;;;;4993957;28;20541;-70
2022/12/10 06:44:25;;;;;;;4.30;4.00;;;18.70;55.90;;;;;;4992928;28;20601;-70
2022/12/10 06:46:53;;;;;;;4.37;3.97;;;18.70;55.90;;;;;;4993002;28;20433;-70
2022/12/10 06:49:22;;;;;;;5.10;4.70;;;18.70;55.90;;;;;;5005208;28;20489;-68
2022/12/10 06:51:51;;;;;;;4.33;3.97;;;18.70;55.80;;;;;;5013477;28;20440;-70
2022/12/10 06:54:20;;;;;;;4.37;3.97;;;18.70;55.90;;;;;;4996955;28;20489;-70
2022/12/10 06:56:48;;;;;;;5.03;4.63;;;18.70;55.80;;;;;;4994493;28;20431;-69
2022/12/10 06:59:16;;;;;;;4.77;4.23;;;18.70;55.80;;;;;;4993530;28;20505;-69
2022/12/10 07:01:46;;;;;;;5.30;4.80;;;18.70;55.70;;;;;;4995396;28;20964;-68
2022/12/10 07:04:14;;;;;;;5.30;4.80;;;18.70;55.60;;;;;;4999897;28;20492;-69
2022/12/10 07:06:44;;;;;;;4.40;4.10;;;18.70;55.60;;;;;;5002807;28;20495;-68
2022/12/10 07:09:13;;;;;;;4.70;4.30;;;18.70;55.50;;;;;;5014164;28;20473;-68
2022/12/10 07:11:42;;;;;;;4.63;4.30;;;18.70;55.60;;;;;;5004961;28;20460;-69
2022/12/10 07:14:14;;;;;;;4.77;4.37;;;18.70;55.60;;;;;;5013123;28;20488;-69
2022/12/10 07:16:45;;;;;;;4.77;4.37;;;18.70;55.60;;;;;;5013250;28;20457;-68
2022/12/10 07:19:14;;;;;;;4.27;3.87;;;18.70;55.60;;;;;;4996530;28;21071;-70
2022/12/10 07:21:43;;;;;;;4.87;4.50;;;18.70;55.50;;;;;;5004557;28;20571;-68
2022/12/10 07:24:16;;;;;;;5.17;4.87;;;18.70;55.50;;;;;;5003599;28;20905;-69
2022/12/10 07:26:46;;;;;;;5.00;4.50;;;18.70;55.40;;;;;;5002193;28;20544;-69
2022/12/10 07:29:18;;;;;;;4.47;4.13;;;18.70;55.40;;;;;;5012417;28;20429;-70
2022/12/10 07:31:47;;;;;;;4.73;4.33;;;18.70;55.50;;;;;;4999651;28;20802;-69
2022/12/10 07:34:16;;;;;;;4.60;4.30;;;18.70;55.50;;;;;;5002546;28;20497;-69
2022/12/10 07:36:44;;;;;;;5.10;4.70;;;18.70;55.50;;;;;;5000122;28;20896;-70
2022/12/10 07:39:17;;;;;;;4.73;4.43;;;18.70;55.60;;;;;;4997197;28;20481;-69
2022/12/10 07:41:45;;;;;;;4.40;4.10;;;18.70;55.60;;;;;;5022982;28;20515;-69
2022/12/10 07:44:14;;;;;;;5.50;5.00;;;18.70;55.70;;;;;;5020626;28;20824;-71
2022/12/10 07:46:42;;;;;;;4.37;4.03;;;18.70;55.80;;;;;;5025446;28;20935;-69
2022/12/10 07:49:11;;;;;;;4.27;3.87;;;18.70;55.80;;;;;;5024322;28;20472;-70
2022/12/10 07:51:39;;;;;;;5.00;4.60;;;18.70;55.80;;;;;;5026427;28;20976;-68
2022/12/10 07:54:07;;;;;;;5.20;4.80;;;18.70;55.80;;;;;;5025423;28;20509;-68
2022/12/10 07:56:37;;;;;;;4.20;3.90;;;18.70;55.90;;;;;;5022284;28;20483;-70
2022/12/10 07:59:05;;;;;;;4.97;4.53;;;18.70;55.90;;;;;;5019180;28;20579;-69
2022/12/10 08:01:34;;;;;;;4.90;4.50;;;18.70;55.90;;;;;;5024021;28;20526;-70
2022/12/10 08:04:03;;;;;;;4.60;4.20;;;18.70;55.80;;;;;;5014804;28;20467;-68
2022/12/10 08:06:32;;;;;;;4.30;3.90;;;18.70;55.80;;;;;;5016045;28;20549;-69
2022/12/10 08:09:00;;;;;;;4.67;4.27;;;18.70;55.70;;;;;;5026754;28;20562;-70
2022/12/10 08:11:29;;;;;;;4.30;4.00;;;18.70;55.70;;;;;;5013570;28;20539;-71
2022/12/10 08:13:58;;;;;;;4.37;4.07;;;18.70;56.70;;;;;;5026818;28;20916;-69
2022/12/10 08:16:30;;;;;;;7.70;4.00;;;18.70;57.80;;;;;;5022380;28;20472;-70
2022/12/10 08:19:00;;;;;;;5.83;3.97;;;18.80;58.20;;;;;;5015146;28;20481;-72
2022/12/10 08:21:31;;;;;;;4.63;4.20;;;18.80;57.90;;;;;;5021162;28;20480;-71
2022/12/10 08:24:00;;;;;;;4.63;3.93;;;18.80;57.80;;;;;;5025377;28;20828;-72
2022/12/10 08:26:30;;;;;;;6.23;4.30;;;18.80;57.90;;;;;;5023334;28;20457;-73
2022/12/10 08:29:00;;;;;;;4.97;4.47;;;18.80;57.80;;;;;;5019672;28;21000;-71
2022/12/10 08:31:29;;;;;;;5.00;4.60;;;18.80;57.60;;;;;;5019209;28;20503;-74
2022/12/10 08:34:06;;;;;;;5.13;4.83;;;18.80;57.50;;;;;;5011573;28;20793;-72
2022/12/10 08:36:34;;;;;;;4.87;4.40;;;18.80;57.40;;;;;;5022866;28;20457;-70
2022/12/10 08:39:02;;;;;;;5.20;4.70;;;18.80;57.50;;;;;;5018024;28;20546;-70
2022/12/10 08:41:30;;;;;;;5.27;4.77;;;18.90;57.40;;;;;;5022470;28;20559;-70
2022/12/10 08:44:00;;;;;;;4.63;4.23;;;18.80;57.50;;;;;;5021159;28;20492;-72
2022/12/10 08:46:29;;;;;;;6.50;4.77;;;18.80;57.50;;;;;;5011885;28;20481;-72
2022/12/10 08:48:58;;;;;;;6.13;4.70;;;18.90;57.40;;;;;;5013938;28;20465;-72
2022/12/10 08:51:26;;;;;;;5.67;4.90;;;18.80;57.40;;;;;;5012970;28;20523;-71
2022/12/10 08:53:55;;;;;;;5.40;4.90;;;18.90;57.30;;;;;;5014462;28;20499;-71
2022/12/10 08:56:23;;;;;;;5.80;4.80;;;18.90;57.30;;;;;;5014780;28;20544;-75
2022/12/10 08:58:52;;;;;;;4.77;4.37;;;18.90;57.30;;;;;;5014124;28;20937;-70
2022/12/10 09:01:22;;;;;;;4.90;4.50;;;18.90;57.50;;;;;;5009986;28;20457;-70
2022/12/10 09:03:51;;;;;;;5.63;5.13;;;18.80;57.60;;;;;;5010980;28;20457;-69
2022/12/10 09:06:20;;;;;;;4.93;4.33;;;18.80;57.80;;;;;;5015718;28;20552;-70
2022/12/10 09:08:49;;;;;;;5.27;4.80;;;18.80;57.90;;;;;;5012910;28;20500;-73
2022/12/10 09:11:19;;;;;;;4.60;4.13;;;18.70;58.10;;;;;;5016842;28;20569;-70
2022/12/10 09:13:47;;;;;;;4.60;4.20;;;18.70;58.30;;;;;;5012252;28;20805;-67
2022/12/10 09:16:16;;;;;;;3.97;3.67;;;18.70;58.30;;;;;;5014274;28;20539;-67
2022/12/10 09:18:45;;;;;;;4.80;4.40;;;18.60;58.40;;;;;;5017666;28;20467;-67
2022/12/10 09:21:16;;;;;;;4.77;4.40;;;18.60;58.50;;;;;;5016312;28;20472;-67
2022/12/10 09:23:45;;;;;;;6.93;4.43;;;18.60;58.70;;;;;;5018231;28;21256;-67
2022/12/10 09:26:15;;;;;;;4.33;4.00;;;18.60;58.90;;;;;;5011500;28;20527;-67
2022/12/10 09:28:44;;;;;;;13.37;4.30;;;18.60;59.10;;;;;;5013668;28;20461;-67
2022/12/10 09:31:14;;;;;;;5.50;5.00;;;18.60;59.10;;;;;;5015142;28;20534;-67
2022/12/10 09:33:49;;;;;;;4.60;4.10;;;18.50;59.10;;;;;;5018237;28;20536;-67
2022/12/10 09:36:17;;;;;;;4.63;4.23;;;18.50;59.20;;;;;;5015146;28;21013;-67
2022/12/10 09:38:46;;;;;;;5.20;4.70;;;18.50;59.20;;;;;;5021648;28;20440;-68
2022/12/10 09:41:40;;;;;;;4.10;3.77;;;18.50;59.20;;;;;;5014172;28;20667;-68
2022/12/10 09:44:17;;;;;;;5.60;4.23;;;18.50;59.30;;;;;;5014180;28;20484;-66
2022/12/10 09:46:52;;;;;;;4.40;4.10;;;18.50;59.30;;;;;;5012620;28;20504;-69
2022/12/10 09:49:34;;;;;;;4.23;3.83;;;18.50;59.20;;;;;;5016033;28;20469;-69
2022/12/10 09:52:05;;;;;;;5.10;4.60;;;18.50;59.20;;;;;;5013789;28;20548;-68
2022/12/10 09:54:37;;;;;;;5.10;4.60;;;18.40;59.20;;;;;;5020539;28;20445;-67
2022/12/10 09:57:07;;;;;;;4.50;4.10;;;18.50;59.30;;;;;;5019919;28;20466;-67
2022/12/10 09:59:39;;;;;;;5.47;4.97;;;18.50;59.30;;;;;;5015344;28;20460;-69
2022/12/10 10:02:22;;;;;;;4.90;4.40;;;18.50;59.20;;;;;;5017165;28;20456;-73
2022/12/10 10:04:54;;;;;;;4.63;4.23;;;18.40;59.30;;;;;;5025070;28;20453;-72
2022/12/10 10:07:25;;;;;;;4.43;4.03;;;18.40;59.30;;;;;;5023914;28;20570;-65
2022/12/10 10:09:58;;;;;;;4.90;4.60;;;18.40;59.30;;;;;;5020547;28;20453;-66
2022/12/10 10:12:29;;;;;;;5.30;4.80;;;18.40;59.40;;;;;;5024620;28;20488;-66
2022/12/10 10:14:57;;;;;;;8.57;4.43;;;18.40;59.40;;;;;;5021712;28;20542;-66
2022/12/10 10:17:34;;;;;;;4.53;4.10;;;18.40;59.30;;;;;;5018573;28;20457;-65
2022/12/10 10:20:04;;;;;;;4.73;4.40;;;18.40;59.30;;;;;;5017753;28;20479;-66
2022/12/10 10:22:32;;;;;;;4.70;4.30;;;18.40;59.30;;;;;;5019357;28;20491;-66
2022/12/10 10:25:02;;;;;;;5.57;5.07;;;18.40;59.40;;;;;;5016265;28;20571;-68
2022/12/10 10:27:33;;;;;;;4.67;4.27;;;18.40;59.30;;;;;;5025660;28;20466;-75
2022/12/10 10:30:04;;;;;;;5.80;4.23;;;18.40;59.30;;;;;;5017849;28;20465;-67
2022/12/10 10:32:47;;;;;;;4.77;4.13;;;18.40;59.40;;;;;;5019111;28;20995;-66
2022/12/10 10:35:24;;;;;;;4.50;4.10;;;18.40;59.40;;;;;;5017713;28;20457;-69
2022/12/10 10:37:57;;;;;;;4.70;4.30;;;18.40;59.40;;;;;;5019289;28;20939;-66
2022/12/10 10:40:31;;;;;;;4.40;3.70;;;18.40;59.50;;;;;;5020551;28;20499;-69
2022/12/10 10:43:00;;;;;;;5.23;4.83;;;18.40;59.50;;;;;;5015244;28;20949;-66
2022/12/10 10:45:39;;;;;;;7.00;4.50;;;18.40;59.50;;;;;;5019869;28;20453;-67
2022/12/10 10:48:13;;;;;;;5.13;4.47;;;18.40;59.50;;;;;;5016351;28;20555;-67
2022/12/10 10:50:44;;;;;;;4.87;4.43;;;18.40;59.50;;;;;;5019604;28;20456;-70
2022/12/10 10:53:33;;;;;;;4.83;4.43;;;18.40;59.60;;;;;;5018648;28;20967;-66
2022/12/10 10:56:10;;;;;;;4.20;3.90;;;18.40;59.60;;;;;;5021658;28;20457;-66
2022/12/10 10:58:57;;;;;;;5.23;4.73;;;18.40;59.60;;;;;;5021522;28;20453;-66
2022/12/10 11:01:27;;;;;;;4.50;4.10;;;18.40;59.70;;;;;;5016572;28;20507;-68
2022/12/10 11:03:59;;;;;;;4.00;3.70;;;18.40;59.70;;;;;;5014168;28;20480;-66
2022/12/10 11:06:30;;;;;;;5.03;4.63;;;18.40;59.70;;;;;;5021368;28;20972;-66
2022/12/10 11:08:59;;;;;;;4.60;4.20;;;18.40;59.70;;;;;;5021764;28;20877;-66
2022/12/10 11:11:34;;;;;;;5.23;4.70;;;18.40;59.60;;;;;;5021121;28;20472;-66
2022/12/10 11:14:23;;;;;;;4.70;4.40;;;18.40;59.60;;;;;;5017610;28;20484;-67
2022/12/10 11:16:51;;;;;;;4.77;4.23;;;18.30;59.60;;;;;;5018327;28;20543;-66
2022/12/10 11:19:22;;;;;;;4.87;4.47;;;18.40;59.60;;;;;;5017591;28;20441;-67
2022/12/10 11:21:52;;;;;;;4.80;4.37;;;18.40;59.60;;;;;;5021784;28;20504;-69
2022/12/10 11:24:21;;;;;;;5.10;4.70;;;18.40;59.60;;;;;;5022996;28;21046;-71
2022/12/10 11:27:04;;;;;;;6.63;4.30;;;18.40;59.60;;;;;;5024381;28;20859;-69
2022/12/10 11:29:49;;;;;;;5.27;4.77;;;18.30;59.50;;;;;;5018659;28;20556;-69
2022/12/10 11:32:33;;;;;;;3.60;3.20;;;18.30;59.50;;;;;;5019484;28;20955;-70
2022/12/10 11:35:12;;;;;;;4.13;3.83;;;18.30;59.50;;;;;;5015331;28;20540;-73
2022/12/10 11:37:50;;;;;;;4.83;4.43;;;18.30;59.50;;;;;;5016747;28;20486;-67
2022/12/10 11:40:32;;;;;;;4.90;4.50;;;18.30;59.40;;;;;;5015387;28;20542;-68
2022/12/10 11:43:19;;;;;;;4.80;3.73;;;18.30;59.40;;;;;;5027235;28;20541;-71
2022/12/10 11:46:02;;;;;;;3.77;3.47;;;18.30;59.40;;;;;;5018506;28;20484;-72
2022/12/10 11:48:41;;;;;;;3.93;3.63;;;18.30;59.50;;;;;;5015625;28;20473;-68
2022/12/10 11:51:19;;;;;;;5.20;4.77;;;18.30;59.50;;;;;;5020618;28;20446;-68
2022/12/10 11:54:02;;;;;;;4.80;4.40;;;18.30;59.50;;;;;;5024461;28;20452;-68
2022/12/10 11:56:38;;;;;;;5.23;3.83;;;18.30;59.50;;;;;;5022372;28;20452;-71
2022/12/10 11:59:16;;;;;;;8.53;4.83;;;18.30;59.50;;;;;;5018382;28;20484;-69
2022/12/10 12:02:12;;;;;;;5.10;4.60;;;18.30;61.60;;;;;;5020698;28;20559;-68
2022/12/10 12:04:56;;;;;;;5.20;4.70;;;18.30;62.00;;;;;;5031281;28;20472;-68
2022/12/10 12:07:40;;;;;;;5.53;4.70;;;18.30;61.80;;;;;;5019459;28;20485;-67
2022/12/10 12:10:27;;;;;;;3.93;3.60;;;18.30;61.50;;;;;;5029505;28;20458;-68
2022/12/10 12:13:05;;;;;;;6.03;4.87;;;18.30;60.90;;;;;;5015516;28;20527;-67
2022/12/10 12:15:38;;;;;;;4.60;4.10;;;18.30;60.80;;;;;;5025856;28;20460;-67
2022/12/10 12:18:14;;;;;;;6.60;4.47;;;18.30;60.70;;;;;;5015031;28;20445;-70
2022/12/10 12:20:55;;;;;;;5.73;4.07;;;18.30;60.60;;;;;;5032865;28;20440;-67
2022/12/10 12:23:29;;;;;;;4.87;3.80;;;18.30;60.60;;;;;;5020441;28;20473;-67
2022/12/10 12:26:05;;;;;;;5.20;4.67;;;18.30;60.50;;;;;;5021566;28;20472;-71
2022/12/10 12:28:38;;;;;;;4.30;3.90;;;18.30;60.50;;;;;;5023850;28;20455;-66
2022/12/10 12:31:10;;;;;;;4.87;4.37;;;18.20;60.50;;;;;;5023751;28;20555;-68
2022/12/10 12:33:46;;;;;;;4.70;4.30;;;18.20;60.50;;;;;;5017328;28;20464;-68
2022/12/10 12:36:19;;;;;;;4.27;3.97;;;18.20;60.50;;;;;;5012583;28;20488;-66
2022/12/10 12:38:54;;;;;;;4.30;4.00;;;18.20;60.50;;;;;;5016251;28;20551;-66
2022/12/10 12:41:32;;;;;;;4.50;4.10;;;18.20;60.50;;;;;;5019764;28;20527;-66
2022/12/10 12:44:09;;;;;;;4.80;4.00;;;18.20;60.40;;;;;;5022157;28;20936;-69
2022/12/10 12:46:43;;;;;;;5.20;3.97;;;18.20;60.40;;;;;;5013836;28;20468;-65
2022/12/10 12:49:18;;;;;;;4.30;3.90;;;18.20;60.40;;;;;;5017867;28;21000;-66
2022/12/10 12:51:51;;;;;;;4.70;4.30;;;18.20;60.40;;;;;;5016687;28;20561;-72
2022/12/10 12:54:20;;;;;;;3.27;3.07;;;18.20;60.40;;;;;;5015373;28;20526;-66
2022/12/10 12:57:06;;;;;;;4.10;3.70;;;18.20;60.40;;;;;;5016423;28;20457;-72
2022/12/10 12:59:48;;;;;;;4.07;3.70;;;18.20;60.40;;;;;;5013879;28;20492;-67
2022/12/10 13:02:24;;;;;;;4.80;4.40;;;18.20;60.40;;;;;;5014698;28;20571;-72
2022/12/10 13:04:53;;;;;;;3.73;3.43;;;18.20;60.40;;;;;;5014030;28;20463;-68
2022/12/10 13:07:33;;;;;;;4.57;4.20;;;18.20;60.40;;;;;;5015204;28;20445;-68
2022/12/10 13:10:24;;;;;;;4.10;3.67;;;18.20;60.40;;;;;;5017932;28;20952;-67
2022/12/10 13:13:08;;;;;;;4.43;4.03;;;18.20;60.50;;;;;;5019903;28;20960;-66
2022/12/10 13:15:39;;;;;;;4.50;3.90;;;18.20;60.40;;;;;;5014137;28;20540;-70
2022/12/10 13:18:36;;;;;;;4.23;3.67;;;18.20;60.50;;;;;;5015121;28;20826;-66
2022/12/10 13:21:28;;;;;;;3.90;3.60;;;18.20;60.50;;;;;;4993741;28;20483;-67
2022/12/10 13:24:08;;;;;;;3.53;3.27;;;18.20;60.40;;;;;;5014672;28;20472;-67